Time;durP1;ratioP1;P1;durP2;ratioP2;P2;SDS_P1;SDS_P2;PMS_P1;PMS_P2;Temp;Humidity;BMP_temperature;BMP_pressure;BME280_temperature;BME280_humidity;BME280_pressure;Samples;Min_cycle;Max_cycle;Signal;HPM_P1;HPM_P2
2022/06/12 00:00:27;;;;;;;;;;;12.80;99.90;;;;;;5037045;28;19917;-78
2022/06/12 00:02:53;;;;;;;;;;;12.80;99.90;;;;;;5019275;28;20016;-78
2022/06/12 00:05:19;;;;;;;;;;;12.90;99.90;;;;;;5018484;28;20007;-78
2022/06/12 00:07:45;;;;;;;;;;;12.80;99.90;;;;;;5035919;28;19921;-78
2022/06/12 00:10:11;;;;;;;;;;;12.90;99.90;;;;;;5018819;28;19923;-78
2022/06/12 00:12:37;;;;;;;;;;;12.90;99.90;;;;;;5035797;28;19964;-78
2022/06/12 00:15:03;;;;;;;;;;;12.80;99.90;;;;;;5035809;28;19917;-76
2022/06/12 00:17:28;;;;;;;;;;;12.90;99.90;;;;;;5018573;28;19923;-76
2022/06/12 00:19:54;;;;;;;;;;;12.90;99.90;;;;;;5018108;28;19925;-78
2022/06/12 00:22:19;;;;;;;;;;;12.80;99.90;;;;;;5035194;28;19970;-77
2022/06/12 00:24:45;;;;;;;;;;;12.80;99.90;;;;;;5034278;28;19940;-78
2022/06/12 00:27:11;;;;;;;;;;;12.80;99.90;;;;;;5019019;28;19917;-78
2022/06/12 00:29:37;;;;;;;;;;;12.80;99.90;;;;;;5018111;28;20369;-80
2022/06/12 00:32:05;;;;;;;;;;;12.80;99.90;;;;;;5015344;28;19925;-78
2022/06/12 00:34:32;;;;;;;;;;;12.80;99.90;;;;;;5016046;28;19917;-78
2022/06/12 00:36:57;;;;;;;;;;;12.70;99.90;;;;;;5015341;28;20372;-78
2022/06/12 00:39:23;;;;;;;;;;;12.70;99.90;;;;;;5014953;28;19921;-77
2022/06/12 00:41:49;;;;;;;;;;;12.70;99.90;;;;;;5015585;28;19924;-77
2022/06/12 00:44:16;;;;;;;;;;;12.70;99.90;;;;;;5015754;28;20015;-77
2022/06/12 00:46:49;;;;;;;;;;;12.60;99.90;;;;;;5014106;28;19967;-78
2022/06/12 00:49:19;;;;;;;;;;;12.60;99.90;;;;;;5015407;28;19937;-76
2022/06/12 00:51:45;;;;;;;;;;;12.60;99.90;;;;;;5020763;28;19940;-79
2022/06/12 00:54:11;;;;;;;;;;;12.60;99.90;;;;;;5034600;28;19924;-73
2022/06/12 00:56:38;;;;;;;;;;;12.60;99.90;;;;;;5036553;28;19921;-73
2022/06/12 00:59:06;;;;;;;;;;;12.50;99.90;;;;;;5035440;28;20257;-75
2022/06/12 01:01:36;;;;;;;;;;;12.50;99.90;;;;;;5035506;28;19918;-76
2022/06/12 01:06:46;;;;;;;;;;;12.40;99.90;;;;;;5016171;28;19924;-78
2022/06/12 01:09:12;;;;;;;;;;;12.30;99.90;;;;;;5014579;28;19917;-78
2022/06/12 01:11:38;;;;;;;;;;;12.40;99.90;;;;;;4998141;28;20000;-78
2022/06/12 01:14:05;;;;;;;;;;;12.30;99.90;;;;;;5013868;28;20387;-78
2022/06/12 01:16:30;;;;;;;;;;;12.30;99.90;;;;;;5013811;28;19976;-78
2022/06/12 01:18:56;;;;;;;;;;;12.30;99.90;;;;;;5014834;28;19956;-78
2022/06/12 01:21:22;;;;;;;;;;;12.30;99.90;;;;;;5014852;28;19925;-78
2022/06/12 01:24:03;;;;;;;;;;;12.20;99.90;;;;;;5014756;28;19921;-78
2022/06/12 01:26:34;;;;;;;;;;;12.20;99.90;;;;;;5013576;28;19921;-77
2022/06/12 01:29:15;;;;;;;;;;;12.30;99.90;;;;;;5014713;28;20027;-78
2022/06/12 01:31:40;;;;;;;;;;;12.30;99.90;;;;;;5024683;28;19917;-78
2022/06/12 01:34:13;;;;;;;;;;;12.30;99.90;;;;;;5034672;28;20252;-78
2022/06/12 01:37:00;;;;;;;;;;;12.30;99.90;;;;;;5017541;28;19917;-78
2022/06/12 01:39:25;;;;;;;;;;;12.30;99.90;;;;;;5033173;28;19923;-78
2022/06/12 01:42:03;;;;;;;;;;;12.20;99.90;;;;;;5016852;28;19917;-78
2022/06/12 01:44:40;;;;;;;;;;;12.30;99.90;;;;;;5032775;28;20273;-78
2022/06/12 01:47:10;;;;;;;;;;;12.30;99.90;;;;;;5033281;28;19975;-78
2022/06/12 01:49:36;;;;;;;;;;;12.30;99.90;;;;;;5033586;28;19917;-78
2022/06/12 01:52:13;;;;;;;;;;;12.30;99.90;;;;;;5034703;28;20011;-78
2022/06/12 01:54:45;;;;;;;;;;;12.30;99.90;;;;;;5033855;28;19923;-78
2022/06/12 01:57:15;;;;;;;;;;;12.30;99.90;;;;;;5000318;28;19916;-78
2022/06/12 01:59:43;;;;;;;;;;;12.30;99.90;;;;;;5016749;28;19924;-78
2022/06/12 02:02:12;;;;;;;;;;;12.30;99.90;;;;;;5017387;28;19917;-78
2022/06/12 02:04:39;;;;;;;;;;;12.30;99.90;;;;;;5033988;28;19971;-78
2022/06/12 02:07:08;;;;;;;;;;;12.20;99.90;;;;;;5032723;28;19971;-78
2022/06/12 02:09:37;;;;;;;;;;;12.30;99.90;;;;;;5033722;28;20373;-78
2022/06/12 02:14:55;;;;;;;;;;;12.40;99.90;;;;;;5033531;28;19917;-78
2022/06/12 02:17:22;;;;;;;;;;;12.40;99.90;;;;;;5033906;28;19917;-77
2022/06/12 02:19:48;;;;;;;;;;;12.40;99.90;;;;;;5032754;28;19921;-78
2022/06/12 02:22:17;;;;;;;;;;;12.40;99.90;;;;;;5032660;28;20004;-77
2022/06/12 02:25:12;;;;;;;;;;;12.40;99.90;;;;;;5033257;28;19917;-77
2022/06/12 02:27:49;;;;;;;;;;;12.40;99.90;;;;;;5020855;28;20249;-78
2022/06/12 02:30:14;;;;;;;;;;;12.50;99.90;;;;;;5033794;28;19916;-77
2022/06/12 02:32:45;;;;;;;;;;;12.50;99.90;;;;;;5033855;28;19970;-78
2022/06/12 02:35:15;;;;;;;;;;;12.50;99.90;;;;;;5032823;28;19917;-78
2022/06/12 02:37:42;;;;;;;;;;;12.50;99.90;;;;;;5032361;28;20356;-78
2022/06/12 02:40:15;;;;;;;;;;;12.50;99.90;;;;;;5016530;28;19917;-78
2022/06/12 02:42:42;;;;;;;;;;;12.50;99.90;;;;;;5033367;28;19917;-78
2022/06/12 02:45:09;;;;;;;;;;;12.50;99.90;;;;;;5036201;28;20027;-78
2022/06/12 02:47:35;;;;;;;;;;;12.50;99.90;;;;;;5037352;28;19967;-78
2022/06/12 02:50:01;;;;;;;;;;;12.50;99.90;;;;;;5038046;28;20380;-78
2022/06/12 02:52:26;;;;;;;;;;;12.50;99.90;;;;;;5039450;28;20038;-78
2022/06/12 02:54:58;;;;;;;;;;;12.50;99.90;;;;;;5038857;28;20010;-78
2022/06/12 02:57:43;;;;;;;;;;;12.50;99.90;;;;;;5035720;28;19917;-77
2022/06/12 03:00:13;;;;;;;;;;;12.50;99.90;;;;;;5058953;28;20017;-74
2022/06/12 03:02:58;;;;;;;;;;;12.40;99.90;;;;;;5025808;28;19980;-74
2022/06/12 03:05:24;;;;;;;;;;;12.40;99.90;;;;;;5036604;28;19917;-76
2022/06/12 03:07:52;;;;;;;;;;;12.40;99.90;;;;;;5038878;28;19956;-77
2022/06/12 03:10:19;;;;;;;;;;;12.40;99.90;;;;;;5037054;28;19921;-77
2022/06/12 03:12:45;;;;;;;;;;;12.40;99.90;;;;;;5036170;28;20410;-76
2022/06/12 03:15:27;;;;;;;;;;;12.40;99.90;;;;;;5036748;28;20037;-76
2022/06/12 03:17:52;;;;;;;;;;;12.40;99.90;;;;;;5036465;28;19979;-76
2022/06/12 03:20:18;;;;;;;;;;;12.40;99.90;;;;;;5037377;28;19924;-78
2022/06/12 03:22:46;;;;;;;;;;;12.40;99.90;;;;;;5019990;28;19917;-78
2022/06/12 03:25:21;;;;;;;;;;;12.30;99.90;;;;;;5019049;28;19983;-79
2022/06/12 03:27:59;;;;;;;;;;;12.20;99.90;;;;;;5035627;28;19943;-78
2022/06/12 03:30:30;;;;;;;;;;;12.30;99.90;;;;;;5036673;28;19917;-78
2022/06/12 03:33:19;;;;;;;;;;;12.20;99.90;;;;;;5002825;28;19961;-78
2022/06/12 03:35:57;;;;;;;;;;;12.20;99.90;;;;;;4991189;28;19940;-78
2022/06/12 03:38:29;;;;;;;;;;;12.20;99.90;;;;;;5035354;28;19924;-77
2022/06/12 03:40:59;;;;;;;;;;;12.10;99.90;;;;;;5019007;28;19999;-77
2022/06/12 03:43:43;;;;;;;;;;;12.10;99.90;;;;;;5018949;28;19940;-76
2022/06/12 03:46:11;;;;;;;;;;;12.10;99.90;;;;;;5036273;28;19917;-78
2022/06/12 03:48:41;;;;;;;;;;;12.20;99.90;;;;;;5035930;28;19940;-78
2022/06/12 03:51:27;;;;;;;;;;;12.10;99.90;;;;;;5035022;28;20020;-78
2022/06/12 03:54:12;;;;;;;;;;;12.20;99.90;;;;;;5035471;28;20345;-77
2022/06/12 03:59:25;;;;;;;;;;;12.30;99.90;;;;;;5036959;28;20265;-78
2022/06/12 04:01:51;;;;;;;;;;;12.30;99.90;;;;;;5035994;28;19924;-78
2022/06/12 04:04:17;;;;;;;;;;;12.30;99.90;;;;;;5034737;28;19921;-76
2022/06/12 04:06:43;;;;;;;;;;;12.30;99.90;;;;;;5034708;28;19917;-77
2022/06/12 04:09:18;;;;;;;;;;;12.30;99.90;;;;;;5034722;28;19932;-79
2022/06/12 04:11:46;;;;;;;;;;;12.40;99.90;;;;;;5035274;28;20234;-77
2022/06/12 04:14:12;;;;;;;;;;;12.40;99.90;;;;;;5036131;28;20026;-77
2022/06/12 04:16:39;;;;;;;;;;;12.40;99.90;;;;;;5034681;28;20276;-78
2022/06/12 04:19:07;;;;;;;;;;;12.40;99.90;;;;;;5035183;28;20070;-77
2022/06/12 04:21:42;;;;;;;;;;;12.40;99.90;;;;;;5035606;28;20265;-79
2022/06/12 04:24:07;;;;;;;;;;;12.50;99.90;;;;;;5036236;28;20375;-78
2022/06/12 04:26:59;;;;;;;;;;;12.50;99.90;;;;;;5035757;28;19916;-78
2022/06/12 04:29:29;;;;;;;;;;;12.50;99.90;;;;;;5032513;28;20261;-77
2022/06/12 04:31:55;;;;;;;;;;;12.50;99.90;;;;;;5034481;28;19917;-78
2022/06/12 04:34:22;;;;;;;;;;;12.50;99.90;;;;;;5035393;28;20078;-77
2022/06/12 04:36:49;;;;;;;;;;;12.50;99.90;;;;;;5018252;28;19964;-78
2022/06/12 04:39:15;;;;;;;;;;;12.60;99.90;;;;;;5035936;28;19917;-77
2022/06/12 04:41:41;;;;;;;;;;;12.60;99.90;;;;;;5035330;28;19917;-77
2022/06/12 04:44:06;;;;;;;;;;;12.60;99.90;;;;;;5034156;28;20430;-77
2022/06/12 04:46:32;;;;;;;;;;;12.60;99.90;;;;;;5038430;28;19917;-76
2022/06/12 04:48:59;;;;;;;;;;;12.70;99.90;;;;;;5017902;28;20320;-76
2022/06/12 04:51:24;;;;;;;;;;;12.70;99.90;;;;;;5017612;28;19966;-77
2022/06/12 04:53:50;;;;;;;;;;;12.70;99.90;;;;;;5048196;28;19980;-72
2022/06/12 04:56:16;;;;;;;;;;;12.70;99.90;;;;;;5056138;28;19917;-84
2022/06/12 04:58:41;;;;;;;;;;;12.80;99.90;;;;;;5039611;28;19917;-73
2022/06/12 05:01:07;;;;;;;;;;;12.80;99.90;;;;;;5034866;28;19924;-78
2022/06/12 05:03:33;;;;;;;;;;;12.80;99.90;;;;;;5035817;28;19968;-77
2022/06/12 05:05:58;;;;;;;;;;;12.80;99.90;;;;;;5035426;28;20026;-80
2022/06/12 05:08:24;;;;;;;;;;;12.90;99.90;;;;;;5034670;28;19924;-77
2022/06/12 05:10:49;;;;;;;;;;;12.90;99.90;;;;;;5035257;28;20373;-79
2022/06/12 05:13:15;;;;;;;;;;;12.90;99.90;;;;;;5017717;28;20304;-77
2022/06/12 05:15:41;;;;;;;;;;;12.90;99.90;;;;;;5018027;28;19966;-77
2022/06/12 05:18:07;;;;;;;;;;;12.90;99.90;;;;;;5034091;28;19921;-77
2022/06/12 05:20:34;;;;;;;;;;;13.00;99.90;;;;;;5034695;28;19921;-77
2022/06/12 05:23:00;;;;;;;;;;;13.00;99.90;;;;;;5035223;28;19939;-76
2022/06/12 05:25:25;;;;;;;;;;;13.10;99.90;;;;;;5035174;28;19916;-77
2022/06/12 05:27:51;;;;;;;;;;;13.10;99.90;;;;;;5034304;28;19979;-78
2022/06/12 05:30:18;;;;;;;;;;;13.20;99.90;;;;;;5034609;28;19928;-77
2022/06/12 05:32:46;;;;;;;;;;;13.20;99.90;;;;;;5016334;28;19917;-78
2022/06/12 05:35:12;;;;;;;;;;;13.20;99.90;;;;;;5034513;28;19921;-77
2022/06/12 05:37:38;;;;;;;;;;;13.30;99.90;;;;;;5034802;28;19917;-78
2022/06/12 05:40:05;;;;;;;;;;;13.30;99.90;;;;;;5034584;28;19916;-76
2022/06/12 05:42:30;;;;;;;;;;;13.40;99.90;;;;;;5016808;28;19917;-76
2022/06/12 05:44:56;;;;;;;;;;;13.40;99.90;;;;;;5017101;28;19940;-77
2022/06/12 05:47:21;;;;;;;;;;;13.50;99.90;;;;;;5016685;28;20010;-76
2022/06/12 05:49:47;;;;;;;;;;;13.50;99.90;;;;;;5016506;28;19921;-76
2022/06/12 05:52:13;;;;;;;;;;;13.50;99.90;;;;;;5034196;28;20012;-75
2022/06/12 05:54:39;;;;;;;;;;;13.60;99.90;;;;;;5033019;28;19964;-76
2022/06/12 05:57:04;;;;;;;;;;;13.60;99.90;;;;;;5034691;28;20353;-77
2022/06/12 05:59:30;;;;;;;;;;;13.60;99.90;;;;;;5016953;28;19964;-77
2022/06/12 06:01:55;;;;;;;;;;;13.70;99.90;;;;;;5034100;28;19921;-77
2022/06/12 06:04:21;;;;;;;;;;;13.70;99.90;;;;;;5034060;28;19917;-77
2022/06/12 06:06:47;;;;;;;;;;;13.80;99.90;;;;;;5016362;28;20019;-76
2022/06/12 06:09:13;;;;;;;;;;;13.80;99.90;;;;;;5016677;28;19917;-77
2022/06/12 06:11:39;;;;;;;;;;;13.90;99.90;;;;;;5017137;28;19923;-77
2022/06/12 06:14:06;;;;;;;;;;;13.90;99.90;;;;;;5033987;28;19924;-75
2022/06/12 06:16:33;;;;;;;;;;;14.00;99.90;;;;;;5034078;28;19917;-76
2022/06/12 06:18:59;;;;;;;;;;;14.00;99.90;;;;;;5036939;28;19917;-75
2022/06/12 06:21:24;;;;;;;;;;;14.10;99.90;;;;;;5036704;28;19924;-76
2022/06/12 06:23:50;;;;;;;;;;;14.10;99.90;;;;;;5038026;28;20345;-77
2022/06/12 06:26:16;;;;;;;;;;;14.20;99.90;;;;;;5038451;28;19924;-77
2022/06/12 06:28:42;;;;;;;;;;;14.30;99.90;;;;;;5037851;28;19917;-76
2022/06/12 06:31:09;;;;;;;;;;;14.40;99.90;;;;;;5037873;28;20395;-76
2022/06/12 06:33:35;;;;;;;;;;;14.50;99.90;;;;;;5037759;28;19917;-76
2022/06/12 06:36:00;;;;;;;;;;;14.50;99.90;;;;;;5020366;28;20299;-77
2022/06/12 06:38:26;;;;;;;;;;;14.60;99.90;;;;;;5037759;28;20015;-75
2022/06/12 06:40:51;;;;;;;;;;;14.70;99.90;;;;;;5037196;28;19917;-77
2022/06/12 06:43:17;;;;;;;;;;;14.80;99.90;;;;;;5037596;28;20265;-75
2022/06/12 06:48:27;;;;;;;;;;;15.00;99.90;;;;;;5055742;28;19928;-71
2022/06/12 06:50:53;;;;;;;;;;;15.10;99.90;;;;;;5057039;28;19917;-72
2022/06/12 06:53:18;;;;;;;;;;;15.20;99.90;;;;;;5056147;28;19920;-72
2022/06/12 06:55:44;;;;;;;;;;;15.30;99.90;;;;;;5057394;28;20309;-72
2022/06/12 06:58:11;;;;;;;;;;;15.50;99.90;;;;;;5041889;28;19916;-77
2022/06/12 07:00:37;;;;;;;;;;;15.60;99.90;;;;;;5037759;28;19921;-77
2022/06/12 07:03:03;;;;;;;;;;;15.70;99.90;;;;;;5036830;28;19924;-77
2022/06/12 07:05:29;;;;;;;;;;;15.80;99.90;;;;;;5037356;28;20280;-77
2022/06/12 07:07:55;;;;;;;;;;;15.80;99.90;;;;;;5036630;28;19924;-76
2022/06/12 07:10:21;;;;;;;;;;;15.90;99.90;;;;;;5020710;28;19917;-77
2022/06/12 07:12:46;;;;;;;;;;;16.10;99.90;;;;;;5019630;28;20451;-78
2022/06/12 07:15:12;;;;;;;;;;;16.20;99.90;;;;;;5037081;28;19968;-77
2022/06/12 07:17:38;;;;;;;;;;;16.30;99.90;;;;;;5036971;28;20020;-77
2022/06/12 07:20:04;;;;;;;;;;;16.50;99.90;;;;;;5036563;28;19917;-78
2022/06/12 07:22:30;;;;;;;;;;;16.80;99.90;;;;;;5020585;28;19924;-78
2022/06/12 07:24:55;;;;;;;;;;;17.00;99.90;;;;;;5020354;28;19923;-78
2022/06/12 07:27:21;;;;;;;;;;;17.20;99.90;;;;;;5036796;28;19979;-77
2022/06/12 07:29:46;;;;;;;;;;;17.40;99.90;;;;;;5035364;28;20261;-78
2022/06/12 07:32:12;;;;;;;;;;;17.60;99.90;;;;;;5036812;28;20376;-78
2022/06/12 07:34:38;;;;;;;;;;;17.70;99.90;;;;;;5019382;28;20292;-78
2022/06/12 07:37:03;;;;;;;;;;;17.80;99.90;;;;;;5035677;28;19916;-78
2022/06/12 07:39:29;;;;;;;;;;;18.00;99.90;;;;;;5019154;28;19917;-78
2022/06/12 07:41:55;;;;;;;;;;;18.20;99.90;;;;;;5036637;28;19917;-77
2022/06/12 07:44:21;;;;;;;;;;;18.30;99.90;;;;;;5036773;28;19917;-77
2022/06/12 07:46:48;;;;;;;;;;;18.50;99.90;;;;;;5019041;28;19924;-78
2022/06/12 07:49:14;;;;;;;;;;;18.60;99.90;;;;;;5018592;28;19975;-79
2022/06/12 07:51:39;;;;;;;;;;;18.80;99.90;;;;;;5036340;28;19925;-79
2022/06/12 07:54:05;;;;;;;;;;;18.90;99.90;;;;;;5019577;28;19921;-78
2022/06/12 07:56:31;;;;;;;;;;;19.00;99.90;;;;;;5019695;28;19924;-79
2022/06/12 07:58:56;;;;;;;;;;;19.10;99.90;;;;;;5034986;28;19925;-78
2022/06/12 08:01:23;;;;;;;;;;;19.20;99.90;;;;;;5019407;28;20007;-78
2022/06/12 08:03:51;;;;;;;;;;;19.30;99.90;;;;;;5036335;28;20300;-78
2022/06/12 08:06:16;;;;;;;;;;;19.50;99.90;;;;;;5019261;28;19921;-77
2022/06/12 08:08:42;;;;;;;;;;;19.60;99.90;;;;;;5019162;28;20403;-78
2022/06/12 08:11:08;;;;;;;;;;;19.70;99.90;;;;;;5035957;28;20031;-77
2022/06/12 08:13:33;;;;;;;;;;;19.70;99.90;;;;;;5036042;28;19917;-77
2022/06/12 08:16:01;;;;;;;;;;;19.80;99.90;;;;;;5034722;28;19917;-76
2022/06/12 08:18:27;;;;;;;;;;;19.80;99.70;;;;;;5019299;28;19921;-78
2022/06/12 08:20:53;;;;;;;;;;;19.90;99.50;;;;;;5035891;28;20242;-78
2022/06/12 08:23:29;;;;;;;;;;;20.00;99.00;;;;;;5018929;28;20349;-78
2022/06/12 08:25:57;;;;;;;;;;;20.00;97.70;;;;;;5035918;28;19917;-77
2022/06/12 08:28:27;;;;;;;;;;;19.90;98.30;;;;;;5035632;28;19916;-76
2022/06/12 08:30:52;;;;;;;;;;;19.90;98.30;;;;;;5034498;28;19916;-77
2022/06/12 08:33:20;;;;;;;;;;;19.80;98.60;;;;;;5034342;28;19917;-78
2022/06/12 08:35:46;;;;;;;;;;;19.90;98.20;;;;;;5038224;28;19928;-77
2022/06/12 08:38:12;;;;;;;;;;;19.90;98.40;;;;;;5036321;28;20015;-78
2022/06/12 08:40:39;;;;;;;;;;;19.90;97.80;;;;;;5004432;28;19917;-78
2022/06/12 08:43:26;;;;;;;;;;;19.90;97.40;;;;;;5016699;28;20035;-78
2022/06/12 08:52:18;;;;;;;;;;;20.20;97.50;;;;;;5041940;28;20008;-74
2022/06/12 08:54:51;;;;;;;;;;;20.20;97.40;;;;;;5037680;28;19924;-77
2022/06/12 08:57:18;;;;;;;;;;;20.20;97.20;;;;;;5029670;28;19917;-74
2022/06/12 09:00:07;;;;;;;;;;;20.20;97.30;;;;;;5024970;28;20247;-79
2022/06/12 09:02:41;;;;;;;;;;;20.10;96.60;;;;;;5091455;28;19908;-79
2022/06/12 09:05:11;;;;;;;;;;;20.10;95.40;;;;;;5090911;28;19921;-80
2022/06/12 09:07:39;;;;;;;;;;;20.00;95.50;;;;;;5091018;28;19920;-79
2022/06/12 09:10:25;;;;;;;;;;;20.00;95.80;;;;;;5090705;28;19971;-81
2022/06/12 09:12:52;;;;;;;;;;;20.00;95.60;;;;;;5090713;28;19989;-81
2022/06/12 09:15:17;;;;;;;;;;;20.00;95.90;;;;;;5072885;28;19920;-80
2022/06/12 09:18:04;;;;;;;;;;;20.00;95.80;;;;;;5090338;28;19962;-79
2022/06/12 09:20:41;;;;;;;;;;;20.10;95.40;;;;;;5090348;28;19924;-78
2022/06/12 09:23:10;;;;;;;;;;;20.00;95.30;;;;;;5089566;28;20284;-78
2022/06/12 09:25:39;;;;;;;;;;;19.90;95.20;;;;;;5090738;28;20364;-78
2022/06/12 09:28:17;;;;;;;;;;;19.80;94.20;;;;;;5090265;28;19920;-78
2022/06/12 09:30:44;;;;;;;;;;;19.60;94.00;;;;;;5073355;28;19981;-79
2022/06/12 09:33:25;;;;;;;;;;;19.50;94.90;;;;;;5090342;28;19977;-79
2022/06/12 09:35:54;;;;;;;;;;;19.40;95.40;;;;;;5072914;28;19920;-78
2022/06/12 09:38:19;;;;;;;;;;;19.30;95.10;;;;;;5089586;28;19920;-78
2022/06/12 09:40:54;;;;;;;;;;;19.20;95.20;;;;;;5089965;28;19927;-78
2022/06/12 09:43:20;;;;;;;;;;;19.20;95.60;;;;;;5090270;28;20310;-77
2022/06/12 09:45:45;;;;;;;;;;;19.20;95.10;;;;;;5089801;28;20007;-78
2022/06/12 09:48:17;;;;;;;;;;;19.40;95.40;;;;;;5089972;28;19967;-78
2022/06/12 09:50:48;;;;;;;;;;;19.70;94.80;;;;;;5090284;28;19920;-79
2022/06/12 09:53:14;;;;;;;;;;;19.90;94.50;;;;;;5088647;28;19920;-80
2022/06/12 09:55:42;;;;;;;;;;;20.10;93.10;;;;;;5089671;28;20298;-79
2022/06/12 09:58:16;;;;;;;;;;;20.40;91.40;;;;;;5072326;28;20062;-77
2022/06/12 10:00:43;;;;;;;;;;;20.70;91.00;;;;;;5090605;28;19920;-75
2022/06/12 10:03:18;;;;;;;;;;;20.70;90.30;;;;;;5091460;28;19943;-76
2022/06/12 10:05:57;;;;;;;;;;;20.60;90.30;;;;;;5110250;28;20260;-77
2022/06/12 10:08:24;;;;;;;;;;;20.50;90.60;;;;;;5091920;28;20189;-79
2022/06/12 10:10:54;;;;;;;;;;;20.50;89.40;;;;;;5109942;28;19920;-77
2022/06/12 10:13:21;;;;;;;;;;;20.60;89.00;;;;;;5100204;28;20271;-77
2022/06/12 10:15:50;;;;;;;;;;;20.80;90.20;;;;;;5096690;28;19943;-81
2022/06/12 10:18:16;;;;;;;;;;;20.90;88.70;;;;;;5078651;28;19927;-80
2022/06/12 10:20:45;;;;;;;;;;;21.00;88.00;;;;;;5096142;28;20023;-78
2022/06/12 10:23:10;;;;;;;;;;;21.10;87.70;;;;;;5095252;28;20387;-78
2022/06/12 10:25:37;;;;;;;;;;;21.10;83.80;;;;;;5078845;28;19920;-77
2022/06/12 10:28:17;;;;;;;;;;;21.20;84.50;;;;;;5096266;28;19924;-81
2022/06/12 10:30:47;;;;;;;;;;;21.10;85.80;;;;;;5095234;28;19920;-78
2022/06/12 10:33:23;;;;;;;;;;;21.10;82.60;;;;;;5077687;28;20276;-76
2022/06/12 10:35:53;;;;;;;;;;;21.00;84.20;;;;;;5096104;28;19920;-79
2022/06/12 10:38:19;;;;;;;;;;;21.00;84.10;;;;;;5095923;28;19927;-77
2022/06/12 10:40:53;;;;;;;;;;;21.10;83.00;;;;;;5096372;28;19927;-79
2022/06/12 10:43:23;;;;;;;;;;;21.10;83.60;;;;;;5078227;28;20464;-79
2022/06/12 10:45:55;;;;;;;;;;;21.20;80.30;;;;;;5107732;28;19924;-78
2022/06/12 10:48:22;;;;;;;;;;;21.10;79.80;;;;;;5111327;28;19920;-78
2022/06/12 10:50:49;;;;;;;;;;;21.00;77.50;;;;;;5087833;28;19942;-78
2022/06/12 10:53:15;;;;;;;;;;;20.90;77.30;;;;;;5103941;28;19959;-78
2022/06/12 10:55:51;;;;;;;;;;;20.80;77.60;;;;;;5114305;28;19908;-79
2022/06/12 10:58:36;;;;;;;;;;;20.60;77.00;;;;;;5102868;28;19930;-78
2022/06/12 11:01:04;;;;;;;;;;;20.60;75.20;;;;;;5104756;28;20419;-76
2022/06/12 11:03:50;;;;;;;;;;;20.60;82.10;;;;;;5065142;28;19920;-76
2022/06/12 11:06:18;;;;;;;;;;;20.70;78.10;;;;;;5064224;28;19932;-80
2022/06/12 11:08:54;;;;;;;;;;;20.80;74.80;;;;;;5060590;28;19942;-78
2022/06/12 11:11:20;;;;;;;;;;;20.90;78.10;;;;;;5043566;28;20367;-78
2022/06/12 11:13:48;;;;;;;;;;;20.90;77.60;;;;;;5095841;28;19920;-77
2022/06/12 11:16:26;;;;;;;;;;;20.90;79.60;;;;;;5094543;28;19927;-80
2022/06/12 11:19:11;;;;;;;;;;;20.90;77.40;;;;;;5095052;28;20011;-78
2022/06/12 11:21:49;;;;;;;;;;;20.80;78.90;;;;;;5094707;28;19927;-79
2022/06/12 11:24:16;;;;;;;;;;;20.80;74.00;;;;;;5075980;28;19920;-78
2022/06/12 11:27:00;;;;;;;;;;;20.70;76.30;;;;;;5094869;28;19924;-80
2022/06/12 11:29:39;;;;;;;;;;;20.70;77.00;;;;;;5094534;28;19920;-79
2022/06/12 11:32:17;;;;;;;;;;;20.60;77.30;;;;;;5095371;28;19981;-80
2022/06/12 11:34:51;;;;;;;;;;;20.60;80.20;;;;;;5094964;28;19927;-79
2022/06/12 11:37:32;;;;;;;;;;;20.70;80.00;;;;;;5076762;28;20298;-84
2022/06/12 11:40:10;;;;;;;;;;;20.90;77.00;;;;;;5095688;28;19927;-77
2022/06/12 11:42:56;;;;;;;;;;;21.10;80.40;;;;;;5076765;28;19982;-76
2022/06/12 11:45:27;;;;;;;;;;;21.30;79.80;;;;;;5093437;28;19930;-78
2022/06/12 11:47:53;;;;;;;;;;;21.30;74.80;;;;;;5095005;28;20271;-78
2022/06/12 11:50:37;;;;;;;;;;;21.20;74.70;;;;;;5094706;28;19920;-81
2022/06/12 11:53:03;;;;;;;;;;;21.10;73.50;;;;;;5094579;28;19927;-77
2022/06/12 11:55:42;;;;;;;;;;;21.00;74.10;;;;;;5094190;28;19924;-76
2022/06/12 11:58:21;;;;;;;;;;;21.00;73.50;;;;;;5076529;28;20330;-80
2022/06/12 12:01:04;;;;;;;;;;;21.00;77.00;;;;;;5094488;28;19920;-79
2022/06/12 12:03:29;;;;;;;;;;;21.00;75.10;;;;;;5075852;28;20017;-79
2022/06/12 12:06:00;;;;;;;;;;;21.20;74.70;;;;;;5094362;28;19920;-78
2022/06/12 12:08:32;;;;;;;;;;;21.20;74.50;;;;;;5075392;28;19920;-77
